Time;durP1;ratioP1;P1;durP2;ratioP2;P2;SDS_P1;SDS_P2;PMS_P1;PMS_P2;Temp;Humidity;BMP_temperature;BMP_pressure;BME280_temperature;BME280_humidity;BME280_pressure;Samples;Min_cycle;Max_cycle;Signal;HPM_P1;HPM_P2
2022/11/17 00:02:12;;;;;;;3.87;3.57;;;9.80;80.20;;;12.03;59.60;99954.56;5074223;28;20228;-53
2022/11/17 00:04:39;;;;;;;3.63;3.30;;;9.70;80.00;;;12.05;59.53;99947.25;5064673;28;20268;-56
2022/11/17 00:07:06;;;;;;;4.53;3.13;;;9.80;80.20;;;12.12;59.09;99942.00;5055184;28;20198;-57
2022/11/17 00:09:33;;;;;;;3.60;3.30;;;9.80;80.20;;;12.13;59.01;99935.69;5072517;28;20289;-56
2022/11/17 00:14:48;;;;;;;3.87;3.57;;;9.70;79.90;;;12.10;59.01;99918.47;5082551;28;20192;-56
2022/11/17 00:17:18;;;;;;;3.37;3.07;;;9.80;80.00;;;12.13;59.18;99917.25;5094971;28;20734;-58
2022/11/17 00:22:31;;;;;;;4.60;3.67;;;9.80;80.10;;;12.17;59.11;99908.72;5062986;28;20553;-56
2022/11/17 00:24:58;;;;;;;4.63;4.23;;;9.80;80.00;;;12.16;58.95;99901.81;5054419;28;20186;-55
2022/11/17 00:27:25;;;;;;;4.03;3.70;;;9.80;79.80;;;12.15;59.12;99897.56;5054728;28;20224;-57
2022/11/17 00:29:52;;;;;;;4.43;4.07;;;9.70;79.80;;;12.09;59.18;99882.56;5054653;28;20217;-55
2022/11/17 00:35:07;;;;;;;3.87;3.57;;;9.70;79.80;;;11.97;58.79;99855.19;5054546;28;20198;-56
2022/11/17 00:37:37;;;;;;;4.10;3.70;;;9.70;79.70;;;11.78;59.79;99860.47;5054215;28;20238;-57
2022/11/17 00:40:06;;;;;;;4.00;3.60;;;9.70;79.80;;;11.80;59.83;99875.06;5055494;28;20206;-54
2022/11/17 00:42:33;;;;;;;4.50;3.77;;;9.60;79.80;;;11.80;59.20;99872.44;5054063;28;20214;-55
2022/11/17 00:44:59;;;;;;;4.30;3.90;;;9.60;79.80;;;11.83;59.32;99858.84;5054670;28;20190;-54
2022/11/17 00:47:28;;;;;;;4.10;3.67;;;9.60;79.80;;;11.84;59.64;99854.41;5061665;28;20193;-55
2022/11/17 00:49:55;;;;;;;4.80;3.60;;;9.60;79.90;;;11.89;59.69;99846.66;5074429;28;20326;-53
2022/11/17 00:52:22;;;;;;;4.50;3.60;;;9.60;79.90;;;11.95;59.49;99841.41;5074682;28;20213;-55
2022/11/17 00:54:49;;;;;;;3.60;3.30;;;9.60;79.90;;;11.96;58.93;99853.56;5074963;28;20198;-56
2022/11/17 00:57:16;;;;;;;4.03;3.63;;;9.60;79.80;;;11.86;59.07;99839.97;5073649;28;20251;-55
2022/11/17 00:59:42;;;;;;;3.77;3.47;;;9.60;79.60;;;11.81;59.33;99846.91;5083830;28;20600;-58
2022/11/17 01:02:09;;;;;;;4.93;3.93;;;9.50;79.60;;;11.86;59.50;99837.34;5093720;28;20212;-56
2022/11/17 01:04:38;;;;;;;4.07;3.67;;;9.60;79.70;;;11.83;58.87;99837.78;5086281;28;20251;-56
2022/11/17 01:07:05;;;;;;;3.67;3.37;;;9.50;79.50;;;11.81;58.88;99839.81;5073704;28;20247;-55
2022/11/17 01:09:32;;;;;;;4.07;3.67;;;9.50;79.40;;;11.86;58.66;99831.28;5073680;28;20251;-52
2022/11/17 01:11:59;;;;;;;3.77;3.47;;;9.50;79.40;;;11.87;58.97;99825.78;5072555;28;20208;-55
2022/11/17 01:14:32;;;;;;;3.97;3.13;;;9.50;79.30;;;11.94;58.92;99818.69;5076425;28;20249;-56
2022/11/17 01:16:59;;;;;;;3.13;2.93;;;9.50;79.30;;;11.93;58.48;99806.50;5075117;28;20182;-56
2022/11/17 01:19:26;;;;;;;3.77;3.33;;;9.50;79.10;;;11.85;58.36;99798.81;5065621;28;20194;-57
2022/11/17 01:21:55;;;;;;;3.03;2.73;;;9.50;78.90;;;11.85;58.12;99787.47;5053297;28;20368;-57
2022/11/17 01:24:22;;;;;;;3.77;2.90;;;9.60;78.70;;;11.84;58.23;99776.09;5053344;28;20201;-56
2022/11/17 01:26:50;;;;;;;2.47;2.30;;;9.50;78.40;;;11.88;58.07;99772.06;5052558;28;20192;-55
2022/11/17 01:29:17;;;;;;;2.83;2.63;;;9.50;78.30;;;11.89;58.07;99778.94;5053790;28;20197;-55
2022/11/17 01:31:50;;;;;;;2.80;2.60;;;9.50;78.20;;;11.80;58.12;99760.91;5060428;28;20638;-55
2022/11/17 01:34:17;;;;;;;2.50;2.30;;;9.50;77.90;;;11.82;58.25;99770.22;5056310;28;20200;-56
2022/11/17 01:39:31;;;;;;;2.00;1.90;;;9.50;77.90;;;11.77;57.41;99770.03;5053566;28;20178;-55
2022/11/17 01:42:04;;;;;;;3.00;2.00;;;9.40;77.70;;;11.65;57.66;99773.50;5053676;28;20689;-53
2022/11/17 01:45:00;;;;;;;2.37;2.17;;;9.50;77.60;;;11.51;58.02;99770.03;5054155;28;20179;-52
2022/11/17 01:47:37;;;;;;;2.20;2.10;;;9.40;77.40;;;11.43;58.42;99751.81;5052990;28;20258;-54
2022/11/17 01:50:18;;;;;;;2.10;1.90;;;9.40;77.40;;;11.42;58.02;99739.66;5057917;28;20197;-56
2022/11/17 01:52:48;;;;;;;2.23;2.03;;;9.30;77.40;;;11.42;58.08;99742.28;5053688;28;20331;-55
2022/11/17 01:55:19;;;;;;;2.13;1.97;;;9.30;77.50;;;11.35;58.27;99746.75;5054063;28;20259;-54
2022/11/17 01:57:52;;;;;;;2.20;2.00;;;9.30;77.40;;;11.26;58.75;99735.63;5054210;28;20615;-53
2022/11/17 02:00:19;;;;;;;1.47;1.37;;;9.20;77.50;;;11.41;58.25;99735.41;5079901;28;20185;-57
2022/11/17 02:02:48;;;;;;;2.07;1.80;;;9.30;77.70;;;11.45;57.65;99729.53;5073340;28;20217;-57
2022/11/17 02:05:33;;;;;;;1.40;1.30;;;9.30;77.40;;;11.45;57.77;99731.34;5073114;28;20202;-56
2022/11/17 02:08:05;;;;;;;1.83;1.73;;;9.30;77.30;;;11.50;57.94;99737.59;5071928;28;20242;-56
2022/11/17 02:10:35;;;;;;;1.80;1.70;;;9.30;77.20;;;11.55;57.42;99718.56;5073025;28;20231;-56
2022/11/17 02:13:03;;;;;;;1.77;1.67;;;9.30;77.40;;;11.58;57.71;99728.66;5072647;28;20334;-57
2022/11/17 02:15:30;;;;;;;1.80;1.70;;;9.30;77.50;;;11.58;57.40;99726.03;5087178;28;20196;-57
2022/11/17 02:17:59;;;;;;;1.87;1.77;;;9.30;77.40;;;11.61;58.00;99730.09;5093494;28;20200;-55
2022/11/17 02:20:55;;;;;;;2.20;2.00;;;9.30;77.40;;;11.49;57.77;99738.63;5076330;28;20209;-55
2022/11/17 02:24:11;;;;;;;2.00;1.90;;;9.30;77.40;;;11.31;58.28;99727.09;5073356;28;20184;-56
2022/11/17 02:27:23;;;;;;;2.07;1.97;;;9.30;77.50;;;11.21;58.65;99729.34;5053118;28;20174;-56
2022/11/17 02:29:59;;;;;;;2.73;2.47;;;9.20;77.80;;;11.19;59.06;99718.19;5052875;28;20194;-57
2022/11/17 02:32:40;;;;;;;2.00;1.90;;;9.20;78.10;;;11.28;59.09;99722.25;5052090;28;20316;-56
2022/11/17 02:35:20;;;;;;;2.30;2.10;;;9.20;78.20;;;11.07;58.71;99706.66;5054128;28;20191;-56
2022/11/17 02:38:00;;;;;;;4.10;3.10;;;9.10;77.90;;;11.11;59.14;99698.13;5052715;28;20236;-56
2022/11/17 02:40:33;;;;;;;2.47;2.27;;;9.10;78.00;;;11.19;59.50;99697.94;5052269;28;20186;-55
2022/11/17 02:46:03;;;;;;;2.80;2.60;;;9.10;78.00;;;11.26;58.27;99680.31;5052638;28;20643;-56
2022/11/17 02:48:36;;;;;;;2.87;2.37;;;9.20;77.90;;;11.28;58.62;99678.28;5068466;28;20189;-56
2022/11/17 02:51:07;;;;;;;2.77;2.57;;;9.20;78.60;;;11.41;58.69;99669.53;5072324;28;20213;-57
2022/11/17 02:53:37;;;;;;;2.67;2.47;;;9.20;77.90;;;11.45;58.04;99662.84;5072498;28;20197;-55
2022/11/17 02:56:06;;;;;;;5.73;2.73;;;9.20;77.80;;;11.48;57.79;99654.53;5074466;28;20192;-55
2022/11/17 02:58:34;;;;;;;2.90;2.70;;;9.20;77.60;;;11.48;57.91;99654.53;5076021;28;20250;-53
2022/11/17 03:01:31;;;;;;;2.77;2.57;;;9.30;78.30;;;11.43;58.25;99647.22;5096680;28;20201;-55
2022/11/17 03:04:31;;;;;;;3.63;2.77;;;9.30;77.50;;;11.39;58.20;99635.47;5096635;28;20219;-56
2022/11/17 03:07:18;;;;;;;3.00;2.70;;;9.30;77.50;;;11.46;57.78;99625.72;5093553;28;20265;-54
2022/11/17 03:10:00;;;;;;;3.53;3.23;;;9.30;77.50;;;11.48;57.92;99626.34;5096576;28;20292;-57
2022/11/17 03:12:40;;;;;;;3.30;3.10;;;9.30;77.80;;;11.48;57.83;99636.09;5084684;28;20271;-54
2022/11/17 03:15:21;;;;;;;3.53;3.23;;;9.30;77.70;;;11.35;58.48;99636.09;5076804;28;20252;-54
2022/11/17 03:18:01;;;;;;;3.83;3.50;;;9.30;77.60;;;11.28;58.95;99644.03;5096278;28;20542;-54
2022/11/17 03:20:38;;;;;;;4.67;3.90;;;9.30;77.90;;;11.28;58.61;99635.31;5078849;28;20202;-55
2022/11/17 03:23:16;;;;;;;3.57;3.20;;;9.20;77.90;;;11.37;59.11;99621.72;5075904;28;20573;-55
2022/11/17 03:25:50;;;;;;;4.00;3.70;;;9.30;78.10;;;11.45;57.99;99604.88;5075806;28;20239;-57
2022/11/17 03:28:29;;;;;;;3.90;3.60;;;9.30;77.80;;;11.40;58.13;99605.50;5069113;28;20212;-56
2022/11/17 03:31:00;;;;;;;6.27;3.90;;;9.30;77.80;;;11.40;58.19;99621.31;5060839;28;20210;-58
2022/11/17 03:33:29;;;;;;;4.17;3.80;;;9.30;77.80;;;11.38;58.01;99617.25;5055297;28;20227;-55
2022/11/17 03:36:05;;;;;;;4.73;4.33;;;9.20;77.50;;;11.41;58.25;99622.13;5055773;28;20225;-58
2022/11/17 03:38:37;;;;;;;4.90;4.47;;;9.20;77.60;;;11.42;58.60;99607.91;5054112;28;20265;-55
2022/11/17 03:41:08;;;;;;;3.80;3.50;;;9.30;77.70;;;11.46;58.09;99603.84;5054964;28;20216;-54
2022/11/17 03:43:37;;;;;;;4.30;3.90;;;9.20;77.70;;;11.41;58.04;99607.09;5060651;28;20658;-54
2022/11/17 03:46:14;;;;;;;4.53;4.13;;;9.30;77.60;;;11.48;58.06;99592.06;5075452;28;20190;-56
2022/11/17 03:48:49;;;;;;;4.90;4.47;;;9.30;77.60;;;11.48;57.63;99601.84;5075413;28;20217;-55
2022/11/17 03:51:22;;;;;;;5.47;4.97;;;9.20;77.60;;;11.37;58.31;99611.19;5075206;28;20213;-55
2022/11/17 03:53:49;;;;;;;5.13;4.63;;;9.20;77.50;;;11.33;58.00;99604.72;5067673;28;20194;-54
2022/11/17 03:56:33;;;;;;;5.00;4.53;;;9.20;77.40;;;11.28;58.44;99616.88;5055048;28;20239;-56
2022/11/17 03:59:10;;;;;;;4.77;4.37;;;9.20;77.60;;;11.28;58.04;99601.06;5063874;28;20187;-55
2022/11/17 04:01:38;;;;;;;5.03;4.53;;;9.20;77.70;;;11.27;58.21;99607.34;5096335;28;20228;-55
2022/11/17 04:04:05;;;;;;;4.97;4.43;;;9.10;77.60;;;11.07;58.91;99604.78;5085485;28;20227;-55
2022/11/17 04:06:32;;;;;;;6.17;5.23;;;9.10;77.80;;;10.94;59.03;99594.25;5073546;28;20541;-54
2022/11/17 04:08:59;;;;;;;5.30;4.80;;;9.00;78.00;;;11.00;59.61;99592.63;5074947;28;20287;-56
2022/11/17 04:16:59;;;;;;;6.00;5.40;;;9.10;78.30;;;11.26;58.40;99587.31;5095113;28;20184;-56
2022/11/17 04:19:26;;;;;;;6.10;5.20;;;9.10;78.10;;;11.21;58.88;99579.22;5086394;28;20193;-57
2022/11/17 04:21:54;;;;;;;5.37;4.87;;;9.00;77.80;;;11.22;58.34;99581.63;5074010;28;20221;-55
2022/11/17 04:24:21;;;;;;;8.50;6.13;;;9.10;77.80;;;11.16;58.42;99571.13;5073846;28;20250;-54
2022/11/17 04:29:33;;;;;;;6.57;5.47;;;9.00;77.60;;;11.08;58.73;99563.47;5074422;28;20197;-54
2022/11/17 04:32:02;;;;;;;5.80;4.60;;;9.00;77.50;;;11.18;58.55;99558.56;5074431;28;20263;-57
2022/11/17 04:34:29;;;;;;;6.40;5.60;;;9.00;77.60;;;11.17;58.47;99565.63;5062176;28;20256;-54
2022/11/17 04:36:56;;;;;;;5.67;4.90;;;9.00;77.30;;;11.24;58.43;99552.47;5054042;28;20244;-55
2022/11/17 04:39:23;;;;;;;6.50;5.87;;;9.00;77.30;;;11.25;58.23;99549.63;5054291;28;20236;-56
2022/11/17 04:41:52;;;;;;;6.80;5.40;;;9.00;77.90;;;11.15;57.80;99543.97;5053592;28;20279;-56
2022/11/17 04:44:24;;;;;;;5.97;5.37;;;9.00;76.90;;;11.12;58.13;99543.59;5063989;28;20216;-56
2022/11/17 04:46:52;;;;;;;5.57;4.97;;;9.00;76.90;;;11.04;58.24;99536.72;5074072;28;20208;-54
2022/11/17 04:49:23;;;;;;;8.07;7.27;;;8.90;76.70;;;10.83;58.52;99543.06;5073955;28;20242;-56
2022/11/17 04:51:52;;;;;;;6.53;4.83;;;8.90;76.80;;;11.02;57.95;99528.22;5074112;28;20238;-54
2022/11/17 04:54:23;;;;;;;7.77;5.50;;;8.90;77.00;;;11.04;58.01;99534.09;5063983;28;20195;-56
2022/11/17 04:56:52;;;;;;;6.07;5.47;;;9.00;77.00;;;11.15;58.07;99551.09;5053909;28;20178;-57
2022/11/17 04:59:19;;;;;;;7.37;5.70;;;9.00;77.10;;;11.13;57.55;99547.81;5056132;28;20197;-54
2022/11/17 05:01:47;;;;;;;5.77;5.20;;;8.90;76.90;;;11.20;57.45;99561.78;5054794;28;20222;-54
2022/11/17 05:04:54;;;;;;;6.23;5.57;;;9.00;76.90;;;11.26;57.59;99550.44;5063404;28;20197;-54
2022/11/17 05:07:07;;;;;;;6.63;6.03;;;9.00;76.90;;;11.06;57.47;99545.22;5074143;28;20676;-55
2022/11/17 05:09:34;;;;;;;6.97;5.80;;;8.90;76.60;;;11.02;57.85;99533.50;5073766;28;20248;-57
2022/11/17 05:14:47;;;;;;;7.20;5.73;;;8.90;76.90;;;11.03;57.98;99540.34;5075194;28;20648;-56
2022/11/17 05:17:15;;;;;;;5.80;5.17;;;9.00;77.00;;;10.96;58.07;99534.31;5093977;28;20192;-56
2022/11/17 05:19:45;;;;;;;6.67;5.97;;;8.90;76.90;;;10.92;58.65;99542.81;5082549;28;20197;-55
2022/11/17 05:25:04;;;;;;;6.67;5.97;;;8.90;77.10;;;11.07;58.28;99530.25;5059605;28;20267;-55
2022/11/17 05:27:32;;;;;;;6.90;6.03;;;8.90;77.10;;;11.15;57.78;99527.38;5053314;28;20197;-55
2022/11/17 05:30:00;;;;;;;7.03;6.33;;;8.90;77.30;;;11.23;57.49;99519.22;5053774;28;20842;-55
2022/11/17 05:32:27;;;;;;;6.87;6.17;;;9.00;77.20;;;11.20;57.31;99514.38;5058752;28;20218;-57
2022/11/17 05:34:54;;;;;;;8.10;6.23;;;9.00;77.00;;;11.12;57.82;99517.25;5055137;28;20248;-55
2022/11/17 05:37:22;;;;;;;12.30;6.93;;;8.90;76.80;;;11.06;58.05;99507.53;5053170;28;20190;-56
2022/11/17 05:39:49;;;;;;;9.40;7.20;;;8.90;77.20;;;11.04;58.09;99514.84;5054520;28;20193;-54
2022/11/17 05:42:16;;;;;;;8.83;7.40;;;8.90;77.50;;;10.99;58.57;99517.28;5052602;28;20642;-57
2022/11/17 05:44:43;;;;;;;8.10;7.30;;;8.90;77.70;;;10.97;59.48;99520.13;5053022;28;20189;-54
2022/11/17 05:47:10;;;;;;;8.73;7.60;;;8.90;78.20;;;10.95;59.45;99521.34;5071308;28;20185;-56
2022/11/17 05:49:37;;;;;;;8.57;7.70;;;8.90;78.50;;;10.91;59.66;99515.69;5072188;28;20670;-57
2022/11/17 05:52:04;;;;;;;9.77;8.07;;;8.80;78.50;;;10.93;59.42;99510.22;5072857;28;20235;-57
2022/11/17 05:54:32;;;;;;;8.60;7.67;;;8.80;78.80;;;10.89;59.60;99499.28;5073325;28;20255;-57
2022/11/17 05:57:05;;;;;;;11.50;7.87;;;8.80;78.90;;;10.88;59.82;99509.03;5073622;28;20302;-57
2022/11/17 05:59:40;;;;;;;10.07;8.17;;;8.80;79.00;;;10.97;59.13;99511.44;5081470;28;20189;-55
2022/11/17 06:02:13;;;;;;;11.40;8.20;;;8.80;79.10;;;10.88;59.26;99516.94;5093564;28;20270;-57
2022/11/17 06:04:42;;;;;;;8.60;7.53;;;8.70;78.80;;;10.87;59.62;99504.78;5094488;28;20246;-56
2022/11/17 06:07:10;;;;;;;11.27;8.67;;;8.80;79.10;;;10.78;59.24;99503.38;5094535;28;20264;-56
2022/11/17 06:09:40;;;;;;;9.00;8.10;;;8.70;78.80;;;10.85;59.63;99506.81;5079717;28;20189;-57
2022/11/17 06:12:08;;;;;;;9.70;8.27;;;8.70;79.10;;;10.83;59.54;99485.16;5072445;28;20213;-57
2022/11/17 06:14:36;;;;;;;9.67;8.43;;;8.70;79.10;;;10.84;59.89;99486.75;5078760;28;20185;-57
2022/11/17 06:17:11;;;;;;;12.07;8.53;;;8.70;80.20;;;10.85;59.53;99496.28;5096064;28;20185;-57
2022/11/17 06:19:48;;;;;;;10.77;8.80;;;8.70;79.20;;;10.88;59.26;99492.44;5068272;28;20182;-58
2022/11/17 06:22:15;;;;;;;10.03;9.03;;;8.70;79.20;;;10.83;59.63;99519.38;5053782;28;20283;-57
2022/11/17 06:24:45;;;;;;;10.10;8.20;;;8.60;78.80;;;10.65;59.22;99499.97;5053630;28;20194;-55
2022/11/17 06:27:15;;;;;;;10.33;9.13;;;8.60;78.60;;;10.69;59.79;99501.19;5052810;28;20623;-56
2022/11/17 06:29:44;;;;;;;12.33;9.93;;;8.60;78.80;;;10.70;59.60;99487.81;5052588;28;20720;-55
2022/11/17 06:32:13;;;;;;;12.50;9.07;;;8.60;79.10;;;10.71;59.50;99494.69;5055208;28;20234;-57
2022/11/17 06:34:41;;;;;;;12.40;9.60;;;8.60;79.10;;;10.60;59.75;99494.53;5056942;28;20651;-55
2022/11/17 06:37:10;;;;;;;11.93;9.67;;;8.50;78.60;;;10.65;59.45;99492.88;5056496;28;20240;-56
2022/11/17 06:39:37;;;;;;;15.47;11.70;;;8.60;78.80;;;10.65;59.74;99497.34;5057851;28;20198;-55
2022/11/17 06:42:05;;;;;;;11.13;9.70;;;8.50;78.70;;;10.66;59.61;99481.34;5056520;28;20580;-55
2022/11/17 06:44:32;;;;;;;10.67;9.27;;;8.50;78.60;;;10.68;59.20;99489.84;5057279;28;20193;-55
2022/11/17 06:46:59;;;;;;;10.67;9.10;;;8.50;78.70;;;10.71;59.70;99489.44;5059630;28;20296;-56
2022/11/17 06:49:27;;;;;;;12.20;10.47;;;8.60;78.70;;;10.73;59.35;99482.13;5077470;28;20670;-57
2022/11/17 06:51:54;;;;;;;11.20;9.70;;;8.60;78.60;;;10.72;59.08;99495.53;5076928;28;20533;-55
2022/11/17 06:54:21;;;;;;;11.37;10.17;;;8.50;78.60;;;10.66;58.98;99489.25;5079396;28;20188;-56
2022/11/17 06:56:50;;;;;;;11.87;10.37;;;8.50;78.30;;;10.70;59.25;99482.53;5078072;28;20196;-56
2022/11/17 06:59:18;;;;;;;13.17;10.30;;;8.50;78.50;;;10.67;59.53;99475.06;5079345;28;20230;-56
2022/11/17 07:01:45;;;;;;;11.17;9.87;;;8.50;78.50;;;10.57;60.16;99487.84;5076024;28;20227;-57
2022/11/17 07:04:12;;;;;;;12.63;10.27;;;8.50;78.90;;;10.48;59.70;99478.56;5077680;28;20231;-57
2022/11/17 07:06:39;;;;;;;9.63;8.67;;;8.40;78.90;;;10.47;60.27;99487.44;5077928;28;20193;-55
2022/11/17 07:09:06;;;;;;;11.77;10.23;;;8.40;79.10;;;10.50;60.59;99470.47;5076826;28;20197;-53
2022/11/17 07:11:37;;;;;;;12.27;10.63;;;8.40;79.40;;;10.45;60.09;99457.91;5075275;28;20213;-55
2022/11/17 07:14:04;;;;;;;12.17;9.87;;;8.40;79.10;;;10.57;59.86;99466.00;5078939;28;20195;-58
2022/11/17 07:16:32;;;;;;;12.00;10.07;;;8.40;79.40;;;10.62;60.26;99480.16;5096892;28;20335;-54
2022/11/17 07:19:02;;;;;;;11.90;10.70;;;8.40;79.70;;;10.66;60.38;99494.50;5086673;28;20190;-56
2022/11/17 07:21:29;;;;;;;12.33;10.07;;;8.40;80.10;;;10.44;61.22;99482.59;5060329;28;20279;-57
2022/11/17 07:23:56;;;;;;;13.60;11.00;;;8.40;80.70;;;10.37;62.07;99487.06;5055823;28;20336;-56
2022/11/17 07:26:23;;;;;;;12.97;10.37;;;8.40;81.10;;;10.37;61.89;99479.16;5056435;28;20248;-54
2022/11/17 07:28:50;;;;;;;12.43;10.17;;;8.30;81.20;;;10.44;62.01;99487.03;5066092;28;20650;-54
2022/11/17 07:31:17;;;;;;;12.60;10.67;;;8.30;82.00;;;10.41;62.63;99475.09;5075503;28;20224;-56
2022/11/17 07:33:46;;;;;;;14.23;12.00;;;8.30;82.50;;;10.40;62.02;99475.31;5076177;28;20250;-54
2022/11/17 07:36:14;;;;;;;14.07;10.17;;;8.30;82.40;;;10.36;62.70;99469.69;5076186;28;20254;-53
2022/11/17 07:38:41;;;;;;;12.37;10.63;;;8.20;82.90;;;10.37;62.54;99471.28;5066945;28;20609;-56
2022/11/17 07:41:12;;;;;;;11.70;10.50;;;8.20;83.10;;;10.30;62.31;99459.97;5057480;28;20210;-54
2022/11/17 07:43:39;;;;;;;12.83;11.17;;;8.20;83.20;;;10.21;63.13;99450.66;5055876;28;20244;-55
2022/11/17 07:46:10;;;;;;;15.27;11.93;;;8.10;83.70;;;10.09;63.75;99452.25;5055595;28;20186;-54
2022/11/17 07:48:37;;;;;;;16.17;10.80;;;8.00;83.70;;;10.13;63.95;99453.50;5074952;28;20185;-57
2022/11/17 07:51:06;;;;;;;14.97;11.57;;;8.00;84.00;;;10.05;63.52;99466.81;5075684;28;20217;-55
2022/11/17 07:53:34;;;;;;;13.20;11.23;;;7.90;83.90;;;9.93;63.61;99478.94;5075704;28;20284;-56
2022/11/17 07:56:03;;;;;;;22.57;17.60;;;7.90;84.30;;;9.76;64.14;99467.22;5076219;28;20242;-55
2022/11/17 07:58:30;;;;;;;13.57;10.17;;;7.80;84.30;;;9.68;64.70;99464.75;5086354;28;20585;-56
2022/11/17 08:00:57;;;;;;;14.87;11.80;;;7.70;84.30;;;9.77;64.67;99458.34;5054441;28;20251;-56
2022/11/17 08:03:24;;;;;;;12.83;11.30;;;7.70;85.20;;;9.82;64.69;99461.13;5053886;28;20214;-57
2022/11/17 08:05:52;;;;;;;14.77;12.10;;;7.70;85.00;;;9.84;64.59;99453.88;5055546;28;20248;-57
2022/11/17 08:08:20;;;;;;;13.40;11.43;;;7.70;85.50;;;9.83;64.57;99457.50;5054658;28;20488;-57
2022/11/17 08:10:47;;;;;;;16.37;11.83;;;7.70;85.40;;;9.83;64.32;99449.63;5053557;28;20194;-55
2022/11/17 08:13:14;;;;;;;12.37;9.53;;;7.60;85.30;;;9.88;64.18;99442.78;5055178;28;20212;-57
2022/11/17 08:15:41;;;;;;;11.50;10.07;;;7.60;85.30;;;9.85;64.67;99434.47;5085225;28;20705;-57
2022/11/17 08:18:08;;;;;;;12.03;10.33;;;7.60;85.40;;;9.75;64.18;99421.72;5090380;28;20658;-55
2022/11/17 08:20:35;;;;;;;12.37;10.90;;;7.60;85.00;;;9.67;64.79;99421.13;5056566;28;20212;-54
2022/11/17 08:23:02;;;;;;;15.87;11.13;;;7.60;85.50;;;9.70;65.60;99420.75;5054735;28;20616;-56
2022/11/17 08:25:31;;;;;;;15.10;10.90;;;7.60;86.30;;;9.70;65.50;99416.25;5055065;28;20704;-55
2022/11/17 08:27:58;;;;;;;13.40;11.07;;;7.60;86.70;;;9.74;64.81;99421.94;5056213;28;20193;-56
2022/11/17 08:30:25;;;;;;;13.30;10.90;;;7.50;86.60;;;9.77;65.41;99424.19;5074893;28;20191;-56
2022/11/17 08:32:53;;;;;;;13.93;11.07;;;7.50;86.60;;;9.72;65.28;99414.28;5074135;28;20216;-57
2022/11/17 08:35:24;;;;;;;12.07;10.03;;;7.50;86.30;;;9.71;64.75;99406.56;5075644;28;20644;-58
2022/11/17 08:37:52;;;;;;;12.80;10.60;;;7.50;86.30;;;9.67;64.97;99410.63;5073578;28;20541;-55
2022/11/17 08:40:20;;;;;;;11.67;10.17;;;7.50;86.10;;;9.63;64.62;99415.47;5053858;28;20247;-58
2022/11/17 08:42:56;;;;;;;10.53;9.43;;;7.40;85.80;;;9.61;65.23;99411.41;5053736;28;20233;-54
2022/11/17 08:45:27;;;;;;;12.30;10.30;;;7.40;86.00;;;9.59;64.59;99402.94;5053853;28;20189;-53
2022/11/17 08:47:55;;;;;;;21.97;15.90;;;7.40;86.00;;;9.67;65.54;99408.00;5064393;28;20217;-55
2022/11/17 08:50:23;;;;;;;14.00;11.03;;;7.40;86.50;;;9.70;65.00;99399.72;5073790;28;20653;-55
2022/11/17 08:52:51;;;;;;;11.83;10.17;;;7.40;86.70;;;9.68;64.69;99396.47;5073794;28;20581;-55
2022/11/17 08:55:18;;;;;;;13.50;11.17;;;7.40;86.20;;;9.71;65.22;99403.94;5074489;28;20254;-56
2022/11/17 08:57:45;;;;;;;12.53;11.20;;;7.40;86.30;;;9.71;65.04;99401.31;5074474;28;20495;-55
2022/11/17 09:00:18;;;;;;;15.83;11.17;;;7.40;86.20;;;9.63;64.79;99406.78;5087874;28;20218;-56
2022/11/17 09:02:45;;;;;;;11.73;10.37;;;7.40;86.30;;;9.66;65.48;99403.75;5094670;28;20588;-54
2022/11/17 09:05:12;;;;;;;12.07;10.00;;;7.40;86.50;;;9.62;64.91;99415.66;5094953;28;20187;-55
2022/11/17 09:07:39;;;;;;;13.40;11.00;;;7.40;86.20;;;9.62;64.71;99415.66;5094716;28;20188;-56
2022/11/17 09:10:09;;;;;;;11.87;9.90;;;7.40;86.10;;;9.62;64.99;99416.47;5057053;28;20206;-55
2022/11/17 09:12:37;;;;;;;11.73;9.53;;;7.40;85.90;;;9.66;64.72;99419.50;5062681;28;20213;-54
2022/11/17 09:15:05;;;;;;;11.93;9.67;;;7.40;86.00;;;9.70;64.69;99410.22;5076590;28;20233;-54
2022/11/17 09:17:34;;;;;;;9.70;8.70;;;7.40;85.80;;;9.73;64.37;99404.56;5097570;28;20216;-56
2022/11/17 09:20:01;;;;;;;11.47;8.40;;;7.50;85.80;;;9.78;64.51;99410.00;5061939;28;20182;-55
2022/11/17 09:22:28;;;;;;;9.70;8.40;;;7.50;85.90;;;9.81;63.93;99418.31;5053954;28;20217;-55
2022/11/17 09:24:55;;;;;;;10.67;8.97;;;7.50;85.30;;;9.72;63.67;99429.22;5053876;28;20633;-57
2022/11/17 09:27:24;;;;;;;9.60;8.33;;;7.50;84.90;;;9.76;64.16;99414.66;5055761;28;20220;-59
2022/11/17 09:29:51;;;;;;;8.57;7.63;;;7.50;85.00;;;9.79;63.48;99403.75;5054022;28;20269;-57
2022/11/17 09:32:19;;;;;;;9.60;8.60;;;7.50;84.90;;;9.82;63.72;99409.41;5055134;28;20241;-57
2022/11/17 09:34:48;;;;;;;10.83;8.63;;;7.50;84.80;;;9.83;63.25;99410.22;5054675;28;20194;-57
2022/11/17 09:37:15;;;;;;;10.43;7.77;;;7.50;84.70;;;9.92;63.34;99420.31;5055124;28;20194;-58
2022/11/17 09:39:42;;;;;;;10.07;8.63;;;7.60;84.70;;;9.97;63.17;99406.56;5054596;28;20267;-58
2022/11/17 09:42:13;;;;;;;9.93;7.70;;;7.60;84.70;;;9.99;63.65;99436.09;5071687;28;20217;-60
2022/11/17 09:44:51;;;;;;;10.37;8.03;;;7.60;84.80;;;9.89;62.88;99419.94;5074055;28;20205;-57
2022/11/17 09:47:30;;;;;;;9.77;8.23;;;7.60;84.20;;;9.86;63.33;99417.69;5073666;28;20184;-57
2022/11/17 09:50:04;;;;;;;9.07;8.17;;;7.60;84.10;;;9.90;62.78;99411.03;5071506;28;20552;-57
2022/11/17 09:52:50;;;;;;;9.20;8.20;;;7.60;84.10;;;9.82;62.98;99433.06;5052316;28;20247;-56
2022/11/17 09:55:28;;;;;;;10.03;8.60;;;7.60;84.00;;;9.72;63.09;99418.72;5053044;28;20247;-56
2022/11/17 09:58:14;;;;;;;7.93;7.13;;;7.60;83.60;;;9.77;63.43;99422.34;5054066;28;20207;-56
2022/11/17 10:00:51;;;;;;;7.97;7.10;;;7.60;84.00;;;9.84;63.40;99422.34;5082126;28;20189;-56
2022/11/17 10:03:24;;;;;;;7.33;6.60;;;7.60;84.20;;;9.84;62.98;99424.97;5075141;28;20217;-60
2022/11/17 10:05:54;;;;;;;8.80;7.90;;;7.60;83.90;;;9.85;63.13;99421.31;5077254;28;20183;-57
2022/11/17 10:08:35;;;;;;;9.13;6.90;;;7.60;83.80;;;9.86;63.11;99417.69;5076232;28;20200;-57
2022/11/17 10:14:10;;;;;;;8.70;7.77;;;7.60;83.40;;;9.80;63.37;99400.09;5058224;28;20194;-57
2022/11/17 10:16:41;;;;;;;8.00;7.20;;;7.60;83.70;;;9.91;62.99;99412.66;5098298;28;20193;-57
2022/11/17 10:19:16;;;;;;;8.33;6.90;;;7.70;83.70;;;9.87;62.76;99406.16;5084635;28;20292;-58
2022/11/17 10:21:50;;;;;;;8.33;6.90;;;7.70;83.20;;;9.85;62.97;99413.44;5068993;28;20577;-56
2022/11/17 10:24:35;;;;;;;8.67;6.80;;;7.70;83.20;;;9.82;62.64;99409.41;5068249;28;20299;-57
2022/11/17 10:27:13;;;;;;;7.27;6.50;;;7.70;83.20;;;9.83;62.87;99411.03;5076815;28;20250;-58
2022/11/17 10:29:40;;;;;;;8.20;7.40;;;7.70;83.20;;;9.75;62.69;99405.97;5085743;28;20197;-58
2022/11/17 10:32:14;;;;;;;9.10;6.73;;;7.70;82.50;;;9.83;62.98;99408.41;5057661;28;20226;-59
2022/11/17 10:34:41;;;;;;;7.73;6.73;;;7.70;83.00;;;9.85;62.59;99413.44;5062090;28;20273;-61
2022/11/17 10:37:29;;;;;;;7.00;6.37;;;7.70;82.60;;;9.85;62.16;99406.38;5076969;28;20225;-58
2022/11/17 10:40:19;;;;;;;7.93;7.03;;;7.70;82.60;;;9.88;62.78;99402.53;5059753;28;20198;-58
2022/11/17 10:43:04;;;;;;;9.23;7.67;;;7.70;82.70;;;9.87;62.06;99411.41;5075570;28;20736;-56
2022/11/17 10:45:33;;;;;;;7.80;6.50;;;7.70;82.50;;;9.87;62.32;99411.41;5065496;28;20223;-59
2022/11/17 10:48:15;;;;;;;7.80;7.00;;;7.80;82.30;;;9.79;62.47;99401.94;5076826;28;20707;-60
2022/11/17 10:50:52;;;;;;;7.87;7.07;;;7.80;82.20;;;9.80;62.68;99411.44;5073023;28;20197;-58
2022/11/17 10:53:26;;;;;;;8.57;7.67;;;7.80;82.50;;;9.88;61.93;99415.69;5063055;28;20193;-59
2022/11/17 10:55:59;;;;;;;8.23;7.33;;;7.80;82.40;;;9.94;62.03;99401.72;5058275;28;20189;-58
2022/11/17 10:58:29;;;;;;;9.27;6.20;;;7.80;82.40;;;9.99;62.06;99404.53;5057840;28;20224;-58
2022/11/17 11:01:02;;;;;;;8.40;6.97;;;7.80;82.50;;;10.07;62.17;99412.22;5071435;28;20215;-57
2022/11/17 11:03:32;;;;;;;7.10;6.40;;;7.80;82.20;;;10.07;61.62;99401.72;5076047;28;20182;-57
2022/11/17 11:06:20;;;;;;;8.47;6.30;;;7.80;82.10;;;10.09;61.49;99389.97;5066244;28;20271;-58
2022/11/17 11:08:57;;;;;;;6.77;5.80;;;7.90;82.20;;;10.14;61.44;99403.34;5057712;28;20196;-56
2022/11/17 11:11:40;;;;;;;6.73;5.87;;;7.90;82.20;;;10.10;61.80;99396.06;5055793;28;20222;-57
2022/11/17 11:14:18;;;;;;;6.10;5.50;;;7.90;82.20;;;10.05;61.71;99409.00;5062043;28;20265;-59